createdAt,value
2018-04-26T00:01:45.623Z,98676.58
2018-04-26T00:04:13.108Z,98675.21
2018-04-26T00:06:40.603Z,98675.13
2018-04-26T00:09:08.083Z,98671.18
2018-04-26T00:11:35.562Z,98669.24
2018-04-26T00:14:03.050Z,98675.14
2018-04-26T00:16:30.527Z,98685.27
2018-04-26T00:18:58.106Z,98669.05
2018-04-26T00:21:25.579Z,98663.58
2018-04-26T00:23:53.076Z,98666.70
2018-04-26T00:26:20.544Z,98663.59
2018-04-26T00:28:48.037Z,98657.23
2018-04-26T00:31:15.499Z,98663.28
2018-04-26T00:33:42.998Z,98660.67
2018-04-26T00:36:10.473Z,98662.13
2018-04-26T00:38:37.950Z,98661.56
2018-04-26T00:41:05.408Z,98665.89
2018-04-26T00:43:32.889Z,98662.23
2018-04-26T00:46:00.379Z,98676.55
2018-04-26T00:48:27.863Z,98668.56
2018-04-26T00:50:55.342Z,98686.60
2018-04-26T00:53:22.797Z,98708.27
2018-04-26T00:55:50.286Z,98704.52
2018-04-26T00:58:17.767Z,98713.59
2018-04-26T01:00:45.256Z,98716.51
2018-04-26T01:03:12.719Z,98728.02
2018-04-26T01:05:40.197Z,98730.53
2018-04-26T01:08:07.654Z,98730.41
2018-04-26T01:10:35.138Z,98735.58
2018-04-26T01:13:02.611Z,98743.85
2018-04-26T01:15:30.094Z,98745.11
2018-04-26T01:17:57.559Z,98750.06
2018-04-26T01:20:25.045Z,98741.23
2018-04-26T01:22:52.500Z,98749.29
2018-04-26T01:25:19.978Z,98751.45
2018-04-26T01:27:47.461Z,98755.98
2018-04-26T01:30:14.950Z,98759.80
2018-04-26T01:32:42.412Z,98762.27
2018-04-26T01:35:09.899Z,98764.50
2018-04-26T01:37:44.187Z,98769.34
2018-04-26T01:40:11.670Z,98777.73
2018-04-26T01:42:39.130Z,98783.08
2018-04-26T01:45:06.709Z,98784.28
2018-04-26T01:47:34.187Z,98792.41
2018-04-26T01:50:01.667Z,98784.08
2018-04-26T01:52:29.135Z,98783.16
2018-04-26T01:54:56.615Z,98781.05
2018-04-26T01:57:24.073Z,98786.54
2018-04-26T01:59:51.555Z,98796.73
2018-04-26T02:02:19.048Z,98797.53
2018-04-26T02:04:46.542Z,98806.39
2018-04-26T02:07:14.003Z,98803.75
2018-04-26T02:09:41.458Z,98804.75
2018-04-26T02:12:08.946Z,98802.76
2018-04-26T02:14:36.426Z,98806.71
2018-04-26T02:17:03.901Z,98798.06
2018-04-26T02:19:31.359Z,98797.64
2018-04-26T02:21:58.844Z,98806.34
2018-04-26T02:24:26.306Z,98807.03
2018-04-26T02:26:53.790Z,98817.55
2018-04-26T02:29:21.250Z,98816.12
2018-04-26T02:31:48.742Z,98816.20
2018-04-26T02:34:16.193Z,98812.03
2018-04-26T02:36:43.670Z,98814.79
2018-04-26T02:39:11.133Z,98814.98
2018-04-26T02:41:38.614Z,98821.00
2018-04-26T02:44:06.074Z,98824.38
2018-04-26T02:46:33.554Z,98829.63
2018-04-26T02:49:01.022Z,98832.11
2018-04-26T02:51:28.506Z,98825.45
2018-04-26T02:53:55.978Z,98828.43
2018-04-26T02:56:23.453Z,98831.41
2018-04-26T02:58:50.919Z,98833.95
2018-04-26T03:01:18.422Z,98831.61
2018-04-26T03:03:45.883Z,98837.48
2018-04-26T03:06:13.342Z,98828.73
2018-04-26T03:08:40.829Z,98829.97
2018-04-26T03:11:08.285Z,98833.23
2018-04-26T03:13:35.767Z,98834.19
2018-04-26T03:16:03.231Z,98843.23
2018-04-26T03:18:30.710Z,98837.05
2018-04-26T03:20:58.190Z,98837.47
2018-04-26T03:23:25.675Z,98841.07
2018-04-26T03:25:53.178Z,98841.64
2018-04-26T03:28:20.658Z,98844.55
2018-04-26T03:30:48.127Z,98852.18
2018-04-26T03:33:15.607Z,98855.83
2018-04-26T03:35:43.070Z,98858.47
2018-04-26T03:38:10.550Z,98858.70
2018-04-26T03:40:38.015Z,98856.56
2018-04-26T03:43:05.506Z,98856.27
2018-04-26T03:45:32.965Z,98858.52
2018-04-26T03:48:00.450Z,98850.09
2018-04-26T03:50:27.916Z,98851.79
2018-04-26T03:52:55.410Z,98851.60
2018-04-26T03:55:22.873Z,98855.08
2018-04-26T03:57:50.374Z,98848.19
2018-04-26T04:00:29.593Z,98854.89
2018-04-26T04:03:08.884Z,98858.88
2018-04-26T04:05:48.305Z,98860.33
2018-04-26T04:08:15.795Z,98848.34
2018-04-26T04:10:43.266Z,98851.17
2018-04-26T04:13:10.749Z,98852.73
2018-04-26T04:15:38.206Z,98859.95
2018-04-26T04:18:05.690Z,98859.20
2018-04-26T04:20:33.147Z,98856.52
2018-04-26T04:23:01.511Z,98855.09
2018-04-26T04:25:28.975Z,98867.99
2018-04-26T04:27:56.494Z,98866.44
2018-04-26T04:30:23.934Z,98865.89
2018-04-26T04:32:51.414Z,98864.17
2018-04-26T04:35:18.923Z,98865.91
2018-04-26T04:37:46.348Z,98865.23
2018-04-26T04:40:13.827Z,98864.32
2018-04-26T04:42:41.294Z,98865.31
2018-04-26T04:45:08.823Z,98867.20
2018-04-26T04:47:36.260Z,98866.70
2018-04-26T04:50:03.742Z,98865.78
2018-04-26T04:52:31.198Z,98871.38
2018-04-26T04:54:58.674Z,98867.55
2018-04-26T04:57:26.129Z,98868.58
2018-04-26T04:59:53.623Z,98868.95
2018-04-26T05:02:21.090Z,98873.93
2018-04-26T05:04:48.591Z,98876.31
2018-04-26T05:07:16.903Z,98882.26
2018-04-26T05:09:44.542Z,98882.20
2018-04-26T05:12:11.999Z,98885.45
2018-04-26T05:14:39.473Z,98889.60
2018-04-26T05:17:06.996Z,98896.46
2018-04-26T05:19:34.522Z,98895.48
2018-04-26T05:22:01.974Z,98898.75
2018-04-26T05:24:29.462Z,98903.69
2018-04-26T05:26:56.923Z,98907.03
2018-04-26T05:29:24.407Z,98914.83
2018-04-26T05:31:51.863Z,98908.59
2018-04-26T05:34:19.341Z,98909.33
2018-04-26T05:36:46.798Z,98914.50
2018-04-26T05:39:14.258Z,98915.89
2018-04-26T05:41:41.738Z,98927.24
2018-04-26T05:44:09.198Z,98925.52
2018-04-26T05:46:36.694Z,98928.75
2018-04-26T05:49:04.151Z,98925.34
2018-04-26T05:51:31.642Z,98918.61
2018-04-26T05:53:59.106Z,98926.35
2018-04-26T05:56:26.587Z,98932.80
2018-04-26T05:58:54.046Z,98934.02
2018-04-26T06:01:21.543Z,98939.34
2018-04-26T06:03:49.032Z,98938.80
2018-04-26T06:06:16.494Z,98945.36
2018-04-26T06:08:43.953Z,98951.61
2018-04-26T06:11:11.429Z,98944.09
2018-04-26T06:13:38.886Z,98949.63
2018-04-26T06:16:06.388Z,98950.12
2018-04-26T06:18:33.872Z,98947.59
2018-04-26T06:21:01.350Z,98935.84
2018-04-26T06:23:28.816Z,98945.02
2018-04-26T06:25:56.299Z,98949.91
2018-04-26T06:28:23.779Z,98951.84
2018-04-26T06:30:51.258Z,98947.67
2018-04-26T06:33:18.726Z,98942.94
2018-04-26T06:35:46.186Z,98953.55
2018-04-26T06:38:13.674Z,98957.00
2018-04-26T06:40:41.162Z,98968.56
2018-04-26T06:43:08.677Z,98968.85
2018-04-26T06:45:36.183Z,98973.09
2018-04-26T06:48:03.670Z,98977.23
2018-04-26T06:50:31.137Z,98976.39
2018-04-26T06:53:05.032Z,98973.50
2018-04-26T06:55:32.496Z,98971.89
2018-04-26T06:57:59.975Z,98979.27
2018-04-26T07:00:27.449Z,98980.92
2018-04-26T07:02:54.962Z,98982.23
2018-04-26T07:05:22.431Z,98974.82
2018-04-26T07:07:49.911Z,98983.92
2018-04-26T07:10:17.367Z,98971.66
2018-04-26T07:12:44.858Z,98964.11
2018-04-26T07:15:12.314Z,98977.08
2018-04-26T07:17:39.826Z,98969.16
2018-04-26T07:20:07.347Z,98967.32
2018-04-26T07:22:34.831Z,98968.95
2018-04-26T07:25:02.291Z,98976.73
2018-04-26T07:27:29.779Z,98978.80
2018-04-26T07:29:57.258Z,98974.63
2018-04-26T07:32:24.751Z,98977.66
2018-04-26T07:34:52.274Z,98971.61
2018-04-26T07:37:19.729Z,98966.58
2018-04-26T07:39:48.134Z,98971.46
2018-04-26T07:42:15.625Z,98965.18
2018-04-26T07:44:43.105Z,98953.65
2018-04-26T07:47:10.611Z,98952.47
2018-04-26T07:49:40.075Z,98944.95
2018-04-26T07:52:07.918Z,98947.21
2018-04-26T07:54:36.933Z,98950.55
2018-04-26T07:57:04.471Z,98953.45
2018-04-26T07:59:31.988Z,98956.02
2018-04-26T08:02:00.471Z,98957.48
2018-04-26T08:04:27.974Z,98965.61
2018-04-26T08:06:55.439Z,98965.11
2018-04-26T08:09:22.923Z,98967.61
2018-04-26T08:11:50.432Z,98971.26
2018-04-26T08:14:22.086Z,98970.02
2018-04-26T08:16:50.306Z,98967.03
2018-04-26T08:19:17.864Z,98971.55
2018-04-26T08:21:45.331Z,98974.35
2018-04-26T08:24:12.834Z,98965.04
2018-04-26T08:26:40.297Z,98969.55
2018-04-26T08:29:07.993Z,98972.91
2018-04-26T08:31:38.981Z,98973.59
2018-04-26T08:34:06.747Z,98978.77
2018-04-26T08:36:34.221Z,98978.22
2018-04-26T08:39:01.719Z,98980.92
2018-04-26T08:41:31.833Z,98980.13
2018-04-26T08:43:59.469Z,98980.53
2018-04-26T08:46:26.931Z,98983.00
2018-04-26T08:48:54.418Z,98988.80
2018-04-26T08:51:21.910Z,98983.22
2018-04-26T08:53:49.390Z,98975.84
2018-04-26T08:56:16.891Z,98977.07
2018-04-26T08:58:44.414Z,98984.36
2018-04-26T09:01:13.465Z,98979.44
2018-04-26T09:03:41.245Z,98984.64
2018-04-26T09:06:08.761Z,98985.30
2018-04-26T09:08:36.227Z,98981.39
2018-04-26T09:11:03.742Z,98977.79
2018-04-26T09:13:31.222Z,98986.98
2018-04-26T09:15:58.770Z,98979.18
2018-04-26T09:18:26.186Z,98980.34
2018-04-26T09:20:53.734Z,98978.73
2018-04-26T09:23:21.232Z,98982.06
2018-04-26T09:25:48.743Z,98980.46
2018-04-26T09:28:20.076Z,98989.94
2018-04-26T09:30:48.546Z,98975.72
2018-04-26T09:33:16.003Z,98979.63
2018-04-26T09:35:43.835Z,98970.58
2018-04-26T09:38:11.956Z,98966.76
2018-04-26T09:40:41.668Z,98983.47
2018-04-26T09:43:09.999Z,98980.84
2018-04-26T09:45:37.587Z,98988.83
2018-04-26T09:48:05.058Z,98987.20
2018-04-26T09:50:32.561Z,98989.91
2018-04-26T09:53:02.574Z,98994.78
2018-04-26T09:55:30.155Z,98999.81
2018-04-26T09:57:57.620Z,98993.09
2018-04-26T10:00:27.987Z,99001.06
2018-04-26T10:02:55.451Z,99000.13
2018-04-26T10:05:28.420Z,98998.91
2018-04-26T10:07:55.874Z,99010.77
2018-04-26T10:10:23.367Z,99003.94
2018-04-26T10:12:53.963Z,99001.50
2018-04-26T10:15:21.452Z,98997.63
2018-04-26T10:17:52.393Z,98999.67
2018-04-26T10:20:20.043Z,98994.98
2018-04-26T10:22:47.531Z,98997.38
2018-04-26T10:25:15.059Z,98989.88
2018-04-26T10:27:42.941Z,98988.72
2018-04-26T10:30:10.443Z,98991.84
2018-04-26T10:32:38.232Z,98994.95
2018-04-26T10:35:05.729Z,98993.70
2018-04-26T10:37:33.239Z,98988.63
2018-04-26T10:40:00.770Z,98986.89
2018-04-26T10:42:28.265Z,98979.50
2018-04-26T10:44:55.758Z,98980.16
2018-04-26T10:47:23.257Z,98983.02
2018-04-26T10:49:50.736Z,98973.39
2018-04-26T10:52:19.235Z,98970.93
2018-04-26T10:54:48.522Z,98974.28
2018-04-26T10:57:16.216Z,98972.70
2018-04-26T10:59:43.677Z,98967.27
2018-04-26T11:02:12.008Z,98971.60
2018-04-26T11:04:42.215Z,98960.51
2018-04-26T11:07:09.794Z,98964.31
2018-04-26T11:09:37.321Z,98968.66
2018-04-26T11:12:04.843Z,98964.05
2018-04-26T11:14:32.317Z,98959.47
2018-04-26T11:16:59.876Z,98965.09
2018-04-26T11:19:27.333Z,98961.19
2018-04-26T11:21:54.818Z,98953.69
2018-04-26T11:24:22.391Z,98946.94
2018-04-26T11:26:49.791Z,98940.52
2018-04-26T11:29:18.096Z,98942.75
2018-04-26T11:31:45.518Z,98952.21
2018-04-26T11:34:13.026Z,98944.96
2018-04-26T11:36:40.486Z,98939.73
2018-04-26T11:39:08.014Z,98950.70
2018-04-26T11:41:35.477Z,98930.27
2018-04-26T11:44:02.983Z,98936.70
2018-04-26T11:46:30.464Z,98937.20
2018-04-26T11:48:57.955Z,98932.20
2018-04-26T11:51:25.458Z,98925.01
2018-04-26T11:53:53.038Z,98929.27
2018-04-26T11:56:22.421Z,98918.59
2018-04-26T11:58:49.955Z,98914.81
2018-04-26T12:01:17.526Z,98906.94
2018-04-26T12:03:45.630Z,98917.08
2018-04-26T12:06:13.091Z,98914.03
2018-04-26T12:08:40.589Z,98912.84
2018-04-26T12:11:08.103Z,98900.28
2018-04-26T12:13:35.591Z,98899.32
2018-04-26T12:16:06.188Z,98912.59
2018-04-26T12:18:35.387Z,98913.92
2018-04-26T12:21:03.774Z,98920.77
2018-04-26T12:23:31.367Z,98919.25
2018-04-26T12:25:58.792Z,98928.45
2018-04-26T12:28:27.375Z,98911.43
2018-04-26T12:30:54.891Z,98918.84
2018-04-26T12:33:25.152Z,98905.47
2018-04-26T12:35:53.888Z,98910.39
2018-04-26T12:38:24.607Z,98912.92
2018-04-26T12:40:52.118Z,98913.78
2018-04-26T12:43:19.583Z,98897.45
2018-04-26T12:45:47.069Z,98896.89
2018-04-26T12:48:14.554Z,98908.14
2018-04-26T12:50:42.096Z,98895.98
2018-04-26T12:53:09.963Z,98914.59
2018-04-26T12:55:37.454Z,98896.44
2018-04-26T12:58:04.968Z,98901.16
2018-04-26T13:00:32.440Z,98891.19
2018-04-26T13:02:59.914Z,98886.56
2018-04-26T13:05:27.460Z,98890.59
2018-04-26T13:07:54.995Z,98876.62
2018-04-26T13:10:22.460Z,98881.84
2018-04-26T13:12:49.954Z,98881.22
2018-04-26T13:15:17.455Z,98890.73
2018-04-26T13:17:44.997Z,98873.30
2018-04-26T13:20:12.478Z,98881.20
2018-04-26T13:22:39.980Z,98875.68
2018-04-26T13:25:07.542Z,98863.90
2018-04-26T13:27:35.221Z,98875.45
2018-04-26T13:30:02.710Z,98862.65
2018-04-26T13:32:30.190Z,98865.58
2018-04-26T13:34:57.682Z,98862.90
2018-04-26T13:37:25.225Z,98854.48
2018-04-26T13:39:52.782Z,98850.98
2018-04-26T13:42:20.210Z,98848.28
2018-04-26T13:44:47.696Z,98861.20
2018-04-26T13:47:15.261Z,98856.52
2018-04-26T13:49:42.762Z,98851.27
2018-04-26T13:52:10.221Z,98864.38
2018-04-26T13:54:37.678Z,98849.21
2018-04-26T13:57:05.195Z,98849.44
2018-04-26T13:59:32.660Z,98841.45
2018-04-26T14:02:00.183Z,98850.63
2018-04-26T14:04:27.659Z,98852.32
2018-04-26T14:06:55.146Z,98848.56
2018-04-26T14:09:22.614Z,98840.17
2018-04-26T14:11:50.143Z,98842.67
2018-04-26T14:14:17.631Z,98833.70
2018-04-26T14:16:45.118Z,98824.95
2018-04-26T14:19:12.595Z,98843.18
2018-04-26T14:21:40.090Z,98842.31
2018-04-26T14:24:07.612Z,98826.14
2018-04-26T14:26:35.117Z,98836.08
2018-04-26T14:29:02.603Z,98832.80
2018-04-26T14:31:30.090Z,98827.59
2018-04-26T14:33:57.556Z,98823.38
2018-04-26T14:36:25.058Z,98812.86
2018-04-26T14:38:52.523Z,98817.42
2018-04-26T14:41:20.007Z,98804.25
2018-04-26T14:43:47.470Z,98799.55
2018-04-26T14:46:15.294Z,98804.91
2018-04-26T14:48:42.780Z,98803.31
2018-04-26T14:51:10.373Z,98801.33
2018-04-26T14:53:37.835Z,98805.73
2018-04-26T14:56:05.354Z,98793.68
2018-04-26T14:58:32.825Z,98784.27
2018-04-26T15:01:05.041Z,98791.08
2018-04-26T15:03:32.541Z,98796.25
2018-04-26T15:06:00.011Z,98784.57
2018-04-26T15:08:27.515Z,98775.52
2018-04-26T15:10:54.990Z,98777.20
2018-04-26T15:13:22.476Z,98771.16
2018-04-26T15:15:49.938Z,98772.71
2018-04-26T15:18:17.433Z,98775.68
2018-04-26T15:20:44.927Z,98780.55
2018-04-26T15:23:12.409Z,98783.98
2018-04-26T15:25:39.908Z,98777.69
2018-04-26T15:28:07.714Z,98779.03
2018-04-26T15:30:35.183Z,98772.20
2018-04-26T15:33:02.666Z,98765.68
2018-04-26T15:35:30.139Z,98755.07
2018-04-26T15:37:57.618Z,98771.63
2018-04-26T15:40:25.108Z,98779.72
2018-04-26T15:42:52.590Z,98771.13
2018-04-26T15:45:20.047Z,98770.19
2018-04-26T15:47:47.529Z,98760.07
2018-04-26T15:50:15.173Z,98767.75
2018-04-26T15:56:12.974Z,98763.20
2018-04-26T16:02:19.629Z,98757.50
2018-04-26T16:04:58.913Z,98758.69
2018-04-26T16:07:54.749Z,98761.79
2018-04-26T16:10:39.910Z,98759.66
2018-04-26T16:13:24.774Z,98755.95
2018-04-26T16:16:09.750Z,98750.83
2018-04-26T16:18:48.962Z,98759.59
2018-04-26T16:21:34.975Z,98748.45
2018-04-26T16:24:33.731Z,98746.83
2018-04-26T16:27:18.842Z,98752.25
2018-04-26T16:29:58.174Z,98755.41
2018-04-26T16:32:37.655Z,98760.73
2018-04-26T16:35:21.202Z,98751.09
2018-04-26T16:38:06.303Z,98760.72
2018-04-26T16:40:33.776Z,98756.40
2018-04-26T16:43:01.327Z,98753.35
2018-04-26T16:45:28.756Z,98752.77
2018-04-26T16:47:56.241Z,98747.22
2018-04-26T16:50:23.704Z,98747.55
2018-04-26T16:52:51.180Z,98750.05
2018-04-26T16:55:18.697Z,98740.22
2018-04-26T16:57:46.161Z,98737.77
2018-04-26T17:00:13.670Z,98748.16
2018-04-26T17:02:44.444Z,98743.83
2018-04-26T17:05:12.150Z,98754.64
2018-04-26T17:07:41.614Z,98748.56
2018-04-26T17:10:09.329Z,98759.09
2018-04-26T17:12:36.876Z,98757.17
2018-04-26T17:15:04.366Z,98754.61
2018-04-26T17:17:31.843Z,98753.23
2018-04-26T17:19:59.325Z,98750.06
2018-04-26T17:22:26.783Z,98746.79
2018-04-26T17:24:54.308Z,98744.37
2018-04-26T17:27:21.771Z,98751.09
2018-04-26T17:29:49.270Z,98749.45
2018-04-26T17:32:16.731Z,98753.13
2018-04-26T17:34:44.224Z,98751.84
2018-04-26T17:37:11.714Z,98752.75
2018-04-26T17:39:39.194Z,98757.14
2018-04-26T17:42:06.663Z,98759.70
2018-04-26T17:44:34.155Z,98755.38
2018-04-26T17:47:01.614Z,98758.37
2018-04-26T17:49:29.137Z,98758.08
2018-04-26T17:51:56.606Z,98755.41
2018-04-26T17:54:24.066Z,98767.09
2018-04-26T17:56:51.582Z,98770.98
2018-04-26T17:59:19.070Z,98766.13
2018-04-26T18:01:46.591Z,98766.17
2018-04-26T18:04:14.047Z,98768.88
2018-04-26T18:06:41.546Z,98764.92
2018-04-26T18:09:09.002Z,98763.38
2018-04-26T18:11:36.486Z,98760.13
2018-04-26T18:14:03.957Z,98773.94
2018-04-26T18:16:31.458Z,98765.87
2018-04-26T18:18:58.922Z,98771.19
2018-04-26T18:21:26.406Z,98770.81
2018-04-26T18:23:53.902Z,98779.87
2018-04-26T18:26:21.398Z,98785.86
2018-04-26T18:28:48.863Z,98784.08
2018-04-26T18:31:16.345Z,98782.02
2018-04-26T18:33:43.814Z,98782.05
2018-04-26T18:36:11.299Z,98779.89
2018-04-26T18:38:38.754Z,98782.81
2018-04-26T18:41:06.229Z,98786.72
2018-04-26T18:43:35.167Z,98782.98
2018-04-26T18:46:02.750Z,98782.97
2018-04-26T18:48:30.281Z,98783.92
2018-04-26T18:50:58.197Z,98783.11
2018-04-26T18:53:26.100Z,98782.91
2018-04-26T18:55:53.595Z,98780.47
2018-04-26T18:58:21.085Z,98774.80
2018-04-26T19:00:48.571Z,98776.90
2018-04-26T19:03:16.131Z,98780.23
2018-04-26T19:05:43.646Z,98777.85
2018-04-26T19:08:11.146Z,98781.39
2018-04-26T19:10:41.016Z,98778.66
2018-04-26T19:13:09.213Z,98784.80
2018-04-26T19:15:36.763Z,98785.70
2018-04-26T19:18:04.694Z,98779.75
2018-04-26T19:20:32.243Z,98783.05
2018-04-26T19:22:59.742Z,98783.19
2018-04-26T19:25:27.246Z,98784.36
2018-04-26T19:27:54.827Z,98780.72
2018-04-26T19:30:22.336Z,98784.84
2018-04-26T19:32:49.845Z,98785.27
2018-04-26T19:35:17.354Z,98787.47
2018-04-26T19:37:44.833Z,98784.28
2018-04-26T19:40:13.026Z,98786.66
2018-04-26T19:42:40.586Z,98788.86
2018-04-26T19:45:08.110Z,98783.66
2018-04-26T19:47:35.605Z,98784.39
2018-04-26T19:50:04.921Z,98783.36
2018-04-26T19:52:32.451Z,98785.16
2018-04-26T19:54:59.911Z,98785.30
2018-04-26T19:57:27.403Z,98785.95
2018-04-26T19:59:54.860Z,98787.64
2018-04-26T20:02:22.610Z,98788.84
2018-04-26T20:04:50.131Z,98779.52
2018-04-26T20:07:17.603Z,98787.08
2018-04-26T20:09:45.206Z,98786.51
2018-04-26T20:12:12.679Z,98786.51
2018-04-26T20:14:40.166Z,98786.30
2018-04-26T20:17:07.803Z,98778.86
2018-04-26T20:19:35.310Z,98781.19
2018-04-26T20:22:02.786Z,98775.59
2018-04-26T20:24:30.286Z,98775.63
2018-04-26T20:26:59.706Z,98775.84
2018-04-26T20:29:27.208Z,98774.84
2018-04-26T20:31:54.682Z,98776.52
2018-04-26T20:34:22.169Z,98777.75
2018-04-26T20:36:49.634Z,98775.63
2018-04-26T20:39:17.127Z,98772.78
2018-04-26T20:41:56.733Z,98771.59
2018-04-26T20:44:36.189Z,98768.41
2018-04-26T20:47:03.764Z,98769.18
2018-04-26T20:49:31.249Z,98764.88
2018-04-26T20:51:58.708Z,98760.77
2018-04-26T20:54:26.209Z,98757.66
2018-04-26T20:56:55.384Z,98759.73
2018-04-26T20:59:22.870Z,98757.55
2018-04-26T21:01:50.379Z,98754.98
2018-04-26T21:04:17.903Z,98756.97
2018-04-26T21:06:45.358Z,98748.77
2018-04-26T21:09:12.926Z,98758.81
2018-04-26T21:11:40.465Z,98751.42
2018-04-26T21:14:08.084Z,98759.11
2018-04-26T21:16:35.522Z,98759.19
2018-04-26T21:19:02.986Z,98750.78
2018-04-26T21:21:30.566Z,98757.34
2018-04-26T21:24:01.769Z,98753.97
2018-04-26T21:26:29.475Z,98756.45
2018-04-26T21:28:56.956Z,98757.13
2018-04-26T21:31:26.622Z,98756.29
2018-04-26T21:33:54.362Z,98757.70
2018-04-26T21:36:21.846Z,98751.48
2018-04-26T21:38:49.341Z,98752.28
2018-04-26T21:41:16.854Z,98749.43
2018-04-26T21:43:44.325Z,98748.66
2018-04-26T21:46:11.817Z,98746.38
2018-04-26T21:48:39.282Z,98745.09
2018-04-26T21:51:12.439Z,98748.77
2018-04-26T21:53:45.606Z,98739.36
2018-04-26T21:56:18.849Z,98731.89
2018-04-26T21:58:51.994Z,98731.88
2018-04-26T22:01:25.202Z,98726.16
2018-04-26T22:07:02.714Z,98729.55
2018-04-26T22:09:30.206Z,98731.18
2018-04-26T22:11:57.691Z,98727.91
2018-04-26T22:14:25.154Z,98724.66
2018-04-26T22:16:52.629Z,98728.47
2018-04-26T22:19:20.090Z,98723.22
2018-04-26T22:21:47.574Z,98722.80
2018-04-26T22:24:15.037Z,98718.55
2018-04-26T22:26:42.519Z,98719.15
2018-04-26T22:29:09.982Z,98712.77
2018-04-26T22:31:37.467Z,98711.92
2018-04-26T22:34:04.922Z,98712.61
2018-04-26T22:36:32.402Z,98717.12
2018-04-26T22:38:59.857Z,98709.77
2018-04-26T22:41:27.336Z,98705.50
2018-04-26T22:43:54.794Z,98711.10
2018-04-26T22:46:22.280Z,98709.59
2018-04-26T22:48:49.735Z,98715.67
2018-04-26T22:51:17.230Z,98701.49
2018-04-26T22:53:44.695Z,98700.50
2018-04-26T22:56:12.181Z,98700.72
2018-04-26T22:58:39.642Z,98700.30
2018-04-26T23:01:07.138Z,98697.49
2018-04-26T23:03:34.612Z,98698.19
2018-04-26T23:06:02.107Z,98697.39
2018-04-26T23:08:29.566Z,98692.65
2018-04-26T23:10:57.026Z,98698.63
2018-04-26T23:13:24.510Z,98701.02
2018-04-26T23:15:51.974Z,98701.08
2018-04-26T23:18:19.463Z,98698.81
2018-04-26T23:20:46.918Z,98698.29
2018-04-26T23:23:14.394Z,98693.95
2018-04-26T23:25:41.853Z,98691.70
2018-04-26T23:28:09.373Z,98693.62
2018-04-26T23:30:36.849Z,98695.28
2018-04-26T23:33:04.348Z,98693.08
2018-04-26T23:35:31.807Z,98687.77
2018-04-26T23:37:59.287Z,98682.03
2018-04-26T23:40:26.742Z,98682.58
2018-04-26T23:42:54.228Z,98677.53
2018-04-26T23:45:21.694Z,98681.14
2018-04-26T23:47:49.175Z,98669.69
2018-04-26T23:50:16.641Z,98669.98
2018-04-26T23:52:44.118Z,98661.95
2018-04-26T23:55:11.582Z,98659.66
2018-04-26T23:57:39.071Z,98653.23
